Flight Track Log - Related Links

Times and Time Zones

All times are in EDT time to prevent confusion due to time zone crossing. See the N658FE flight status page for this flight to view local times or setup timezone preferences in your user account.


Time Position Orientation Groundspeed Altitude Reporting Facility
EDT Latitude Longitude Course Direction KTS MPH feet Rate Location/Type
Wed 05:19:27 PM 35.0167 -89.9667 158° South 140 161 1,200  Level Memphis TRACON
Wed 05:20:54 PM 34.9500 -89.9333 158° South 272 313 5,600 3,617 Climbing Memphis TRACON
Wed 05:21:48 PM 34.9667 -89.8500 76° East 262 302 9,700 3,135 Climbing Memphis TRACON
Wed 05:22:45 PM 34.9789 -89.7667 80° East 329 379 11,400 2,974 Climbing Memphis Center
Wed 05:23:45 PM 34.9886 -89.6297 85° East 360 414 15,500 3,550 Climbing Memphis Center
Wed 05:24:45 PM 34.9981 -89.4978 85° East 383 441 18,500 2,900 Climbing Memphis Center
Wed 05:25:45 PM 35.0094 -89.3481 85° East 413 475 21,300 2,800 Climbing Memphis Center
Wed 05:26:45 PM 35.0206 -89.1983 85° East 435 501 24,100 2,550 Climbing Memphis Center
Wed 05:27:45 PM 35.0253 -89.0436 88° East 451 519 26,400 2,600 Climbing Memphis Center
Wed 05:28:45 PM 35.0278 -88.8836 89° East 458 527 29,300 2,300 Climbing Memphis Center
Wed 05:29:45 PM 35.0303 -88.7442 89° East 458 527 31,000 270 Climbing Memphis Center
Wed 05:35:57 PM 35.2290 -87.7900 89° East 33,000 157 Climbing FlightAware ADS-B
Wed 05:36:37 PM 35.2550 -87.6870 73° East 33,000  Level FlightAware ADS-B
Wed 05:37:27 PM 35.2860 -87.5620 73° East 33,000  Level FlightAware ADS-B
Wed 05:38:27 PM 35.3230 -87.4150 73° East 33,000  Level FlightAware ADS-B
Wed 05:39:07 PM 35.3480 -87.3160 73° East 33,000  Level FlightAware ADS-B
Wed 05:39:47 PM 35.3730 -87.2170 73° East 33,000  Level FlightAware ADS-B
Wed 05:40:32 PM 35.4010 -87.1030 73° East 33,000  Level FlightAware ADS-B
Wed 05:41:12 PM 35.4250 -87.0020 74° East 33,000  Level FlightAware ADS-B
Wed 05:41:52 PM 35.4490 -86.9040 73° East 33,000  Level FlightAware ADS-B
Wed 05:42:27 PM 35.4718 -86.8112 73° East 458 527 33,000  Level FlightAware ADS-B
Wed 05:43:00 PM 35.4918 -86.7285 73° East 458 527 33,000  Level FlightAware ADS-B
Wed 05:44:02 PM 35.5290 -86.5770 73° East 33,000  Level FlightAware ADS-B
Wed 05:44:42 PM 35.5530 -86.4750 74° East 33,000  Level FlightAware ADS-B
Wed 05:45:27 PM 35.5840 -86.3650 71° East 33,000  Level FlightAware ADS-B
Wed 05:46:07 PM 35.6150 -86.2670 69° East 33,000  Level FlightAware ADS-B
Wed 05:46:26 PM 35.6318 -86.2137 69° East 451 519 33,000  Level FlightAware ADS-B
Wed 05:47:19 PM 35.6728 -86.0817 69° East 471 542 33,000  Level FlightAware ADS-B
Wed 05:47:49 PM 35.6960 -86.0066 69° East 465 535 33,000  Level FlightAware ADS-B
Wed 05:48:19 PM 35.7191 -85.9313 69° East 460 529 33,000  Level FlightAware ADS-B
Wed 05:48:57 PM 35.7470 -85.8400 69° East 33,000  Level FlightAware ADS-B
Wed 05:49:27 PM 35.7715 -85.7603 69° East 470 541 33,000  Level FlightAware ADS-B
Wed 05:49:57 PM 35.7950 -85.6834 69° East 494 568 33,000  Level FlightAware ADS-B
Wed 05:50:28 PM 35.8180 -85.6077 69° East 478 550 33,000  Level FlightAware ADS-B
Wed 05:50:58 PM 35.8412 -85.5308 70° East 464 534 33,000  Level FlightAware ADS-B
Wed 05:51:29 PM 35.8647 -85.4529 70° East 455 524 33,000  Level FlightAware ADS-B
Wed 05:52:11 PM 35.8961 -85.3488 70° East 472 543 33,000  Level FlightAware ADS-B
Wed 05:52:41 PM 35.9191 -85.2724 70° East 465 535 33,000  Level FlightAware ADS-B
Wed 05:53:25 PM 35.9528 -85.1605 70° East 476 548 33,000  Level FlightAware ADS-B
Wed 05:53:56 PM 35.9761 -85.0824 70° East 472 543 33,000  Level FlightAware ADS-B
Wed 05:54:27 PM 35.9991 -85.0053 70° East 479 551 33,000  Level FlightAware ADS-B
Wed 05:55:01 PM 36.0245 -84.9193 70° East 471 542 33,000  Level FlightAware ADS-B
Wed 05:55:31 PM 36.0475 -84.8421 70° East 491 565 33,000  Level FlightAware ADS-B
Wed 05:56:01 PM 36.0698 -84.7662 70° East 485 558 33,000  Level FlightAware ADS-B
Wed 05:56:32 PM 36.0926 -84.6893 70° East 468 539 33,000  Level FlightAware ADS-B
Wed 05:57:02 PM 36.1152 -84.6124 70° East 477 549 33,000  Level FlightAware ADS-B
Wed 05:57:33 PM 36.1373 -84.5367 70° East 464 534 33,000  Level FlightAware ADS-B
Wed 05:58:06 PM 36.1623 -84.4507 70° East 464 534 33,000  Level FlightAware ADS-B
Wed 05:58:41 PM 36.1874 -84.3645 70° East 468 539 33,000  Level FlightAware ADS-B
Wed 05:59:11 PM 36.2099 -84.2875 70° East 482 555 33,000  Level FlightAware ADS-B
Wed 05:59:42 PM 36.2326 -84.2089 70° East 481 554 33,000  Level FlightAware ADS-B
Wed 06:00:14 PM 36.2563 -84.1273 70° East 469 540 33,000  Level FlightAware ADS-B
Wed 06:00:53 PM 36.2848 -84.0277 70° East 481 554 33,000  Level FlightAware ADS-B
Wed 06:01:24 PM 36.3073 -83.9498 70° East 456 525 33,000  Level FlightAware ADS-B
Wed 06:01:54 PM 36.3294 -83.8722 71° East 484 557 33,000  Level FlightAware ADS-B
Wed 06:02:24 PM 36.3512 -83.7958 70° East 468 539 33,000  Level FlightAware ADS-B
Wed 06:02:54 PM 36.3733 -83.7180 71° East 476 548 33,000  Level FlightAware ADS-B
Wed 06:03:26 PM 36.3958 -83.6387 71° East 466 536 33,000  Level FlightAware ADS-B
Wed 06:03:57 PM 36.4183 -83.5593 71° East 476 548 33,000  Level FlightAware ADS-B
Wed 06:04:27 PM 36.4400 -83.4818 71° East 475 547 33,000  Level FlightAware ADS-B
Wed 06:04:59 PM 36.4636 -83.3979 71° East 460 529 33,000  Level FlightAware ADS-B
Wed 06:05:43 PM 36.4956 -83.2836 71° East 480 552 33,000  Level FlightAware ADS-B
Wed 06:06:20 PM 36.5222 -83.1883 71° East 487 560 33,000  Level FlightAware ADS-B
Wed 06:06:51 PM 36.5446 -83.1073 71° East 483 556 33,000  Level FlightAware ADS-B
Wed 06:07:24 PM 36.5687 -83.0208 71° East 482 555 33,000  Level FlightAware ADS-B
Wed 06:08:02 PM 36.5960 -82.9215 71° East 464 534 33,000  Level FlightAware ADS-B
Wed 06:08:32 PM 36.6183 -82.8405 71° East 489 563 33,000  Level FlightAware ADS-B
Wed 06:09:24 PM 36.6554 -82.7060 71° East 479 551 33,000  Level FlightAware ADS-B
Wed 06:09:55 PM 36.6772 -82.6261 71° East 469 540 33,000  Level FlightAware ADS-B
Wed 06:10:26 PM 36.6991 -82.5449 71° East 468 539 33,000  Level FlightAware ADS-B
Wed 06:10:56 PM 36.7210 -82.4649 71° East 496 571 33,000  Level FlightAware ADS-B
Wed 06:11:27 PM 36.7429 -82.3837 71° East 476 548 33,000  Level FlightAware ADS-B
Wed 06:12:37 PM 36.7922 -82.2002 71° East 479 551 33,000 -538 Level FlightAware ADS-B
Wed 06:13:52 PM 36.8403 -82.0016 73° East 478 550 31,700 -1,015 Descending FlightAware ADS-B
Wed 06:14:47 PM 36.8681 -81.8588 76° East 475 547 30,800 -900 Descending FlightAware ADS-B
Wed 06:16:06 PM 36.9082 -81.6535 76° East 29,400 -864 Descending FlightAware ADS-B
Wed 06:16:52 PM 36.9275 -81.5486 76° East 450 518 29,000 -226 Descending Atlanta Center
Wed 06:17:52 PM 36.9536 -81.3997 78° East 440 506 29,000  Level Atlanta Center
Wed 06:18:52 PM 36.9817 -81.2508 77° East 435 501 29,000  Level Atlanta Center
Wed 06:19:52 PM 37.0078 -81.1147 76° East 435 501 29,000  Level Atlanta Center
Wed 06:21:40 PM 37.0606 -80.8547 76° East 427 491 29,000  Level Washington Center
Wed 06:22:38 PM 37.0900 -80.7031 76° East 433 498 29,000  Level Washington Center
Wed 06:23:39 PM 37.1133 -80.5483 79° East 438 504 29,000  Level Washington Center
Wed 06:24:39 PM 37.1411 -80.3808 78° East 446 513 29,000  Level Washington Center
Wed 06:25:40 PM 37.1656 -80.2311 78° East 446 513 29,000 -252 Level Washington Center
Wed 06:26:38 PM 37.1881 -80.0814 79° East 446 513 28,500 -756 Descending Washington Center
Wed 06:27:39 PM 37.2125 -79.9289 79° East 446 513 27,500 -984 Descending Washington Center
Wed 06:28:40 PM 37.2339 -79.7944 79° East 446 513 26,500 -1,008 Descending Washington Center
Wed 06:29:38 PM 37.2558 -79.6442 80° East 446 513 25,500 -1,008 Descending Washington Center
Wed 06:30:39 PM 37.2817 -79.4917 78° East 446 513 24,500 -1,339 Descending Washington Center
Wed 06:31:39 PM 37.3036 -79.3333 80° East 441 507 22,800 2,250 Descending Washington Center
Wed 06:32:39 PM 37.3264 -79.1986 78° East 415 478 29,000 -1,785 Climbing Washington Center
Wed 06:33:40 PM 37.3467 -79.0794 78° East 391 450 19,200 -5,653 Descending Washington Center
Wed 06:34:40 PM 37.3647 -78.9550 80° East 378 435 17,600 -1,831 Descending Washington Center
Wed 06:35:38 PM 37.3850 -78.8331 78° East 365 420 15,600 -1,966 Descending Washington Center
Wed 06:36:39 PM 37.4028 -78.7133 79° East 353 406 13,700 -2,033 Descending Washington Center
Wed 06:37:39 PM 37.4206 -78.5861 80° East 342 394 11,500 -1,736 Descending Washington Center
Wed 06:38:40 PM 37.4356 -78.4819 80° East 330 380 10,200 -1,041 Descending Washington Center
Wed 06:39:40 PM 37.4506 -78.3806 79° East 304 350 9,400 -605 Descending Washington Center
Wed 06:40:39 PM 37.4650 -78.2894 79° East 284 327 9,000 -202 Descending Washington Center
Wed 06:41:39 PM 37.4775 -78.2061 79° East 269 310 9,000 -637 Level Washington Center
Wed 06:47:47 PM 37.5620 -77.6470 79° East 3,400 -695 Descending FlightAware ADS-B
Wed 06:48:12 PM 37.5720 -77.6140 69° East 3,000 -424 Descending FlightAware ADS-B
Wed 06:48:42 PM 37.5830 -77.5780 69° East 2,600 -375 Descending FlightAware ADS-B
Wed 06:49:12 PM 37.5930 -77.5430 70° East 2,400 -322 Descending FlightAware ADS-B
Wed 06:49:42 PM 37.6030 -77.5110 68° East 2,100 -311 Descending FlightAware ADS-B
Wed 06:50:07 PM 37.6120 -77.4830 68° East 1,900 -264 Descending FlightAware ADS-B
Wed 06:50:37 PM 37.6200 -77.4540 71° East 1,800 -229 Descending FlightAware ADS-B
Wed 06:50:52 PM 37.6210 -77.4390 85° East 1,700 -236 Descending FlightAware ADS-B
Wed 06:51:17 PM 37.6160 -77.4170 106° East 1,700 -214 Level FlightAware ADS-B
Wed 06:52:02 PM 37.5930 -77.3850 132° Southeast 1,500 -276 Descending FlightAware ADS-B
Wed 06:52:44 PM 37.5667 -77.3667 132° Southeast 160 184 1,300 -556 Descending Potomac TRACON
Wed 06:53:50 PM 37.5333 -77.3333 142° Southeast 130 150 500 -727 Descending Potomac TRACON
Wed 06:55:00 PM 37.5000 -77.3167 90° East  Level FlightAware Approximate

Login

Don't have an account? Register now (free) for customized features, flight alerts, and more!